Time;durP1;ratioP1;P1;durP2;ratioP2;P2;SDS_P1;SDS_P2;PMS_P1;PMS_P2;Temp;Humidity;BMP_temperature;BMP_pressure;BME280_temperature;BME280_humidity;BME280_pressure;Samples;Min_cycle;Max_cycle;Signal;HPM_P1;HPM_P2
2021/12/26 00:01:44;;;;;;;4.38;2.28;;;-5.10;99.90;;;;;;5015798;28;20038;-69
2021/12/26 00:04:14;;;;;;;4.70;1.90;;;-5.10;99.90;;;;;;4998058;28;20074;-69
2021/12/26 00:06:43;;;;;;;3.88;1.95;;;-5.10;99.90;;;;;;5015675;28;20041;-69
2021/12/26 00:09:09;;;;;;;4.25;1.58;;;-5.10;99.90;;;;;;5016249;28;20033;-70
2021/12/26 00:11:35;;;;;;;4.03;1.70;;;-5.10;99.90;;;;;;4998689;28;20601;-70
2021/12/26 00:14:02;;;;;;;3.90;1.80;;;-4.10;99.90;;;;;;4997696;28;20045;-69
2021/12/26 00:16:28;;;;;;;6.70;1.83;;;-5.00;99.90;;;;;;4998047;28;20483;-70
2021/12/26 00:18:53;;;;;;;3.88;2.10;;;-5.10;99.90;;;;;;5033069;28;20048;-69
2021/12/26 00:21:21;;;;;;;6.18;2.08;;;-5.10;99.90;;;;;;5036805;28;20075;-69
2021/12/26 00:23:47;;;;;;;4.18;1.77;;;-5.10;99.90;;;;;;5020977;28;20042;-69
2021/12/26 00:26:14;;;;;;;3.95;1.83;;;-5.10;99.90;;;;;;5016735;28;20462;-69
2021/12/26 00:28:40;;;;;;;4.25;2.00;;;-5.10;99.90;;;;;;5024246;28;20513;-69
2021/12/26 00:31:06;;;;;;;4.00;1.80;;;-5.20;99.90;;;;;;5036108;28;20131;-69
2021/12/26 00:33:32;;;;;;;4.00;1.75;;;-5.20;99.90;;;;;;5036039;28;20077;-69
2021/12/26 00:35:59;;;;;;;5.47;1.77;;;-5.20;99.90;;;;;;5036355;28;20049;-70
2021/12/26 00:38:25;;;;;;;5.15;1.95;;;-5.10;99.90;;;;;;5030526;28;20099;-69
2021/12/26 00:40:51;;;;;;;6.45;2.20;;;-5.20;99.90;;;;;;4999175;28;20117;-69
2021/12/26 00:43:17;;;;;;;4.20;2.10;;;-5.20;99.90;;;;;;4997824;28;20188;-69
2021/12/26 00:45:43;;;;;;;4.43;2.08;;;-5.20;99.90;;;;;;5016474;28;20049;-70
2021/12/26 00:48:09;;;;;;;3.90;2.00;;;-5.20;99.90;;;;;;5002331;28;20037;-69
2021/12/26 00:50:37;;;;;;;4.60;1.80;;;-5.20;99.90;;;;;;5002408;28;20124;-69
2021/12/26 00:53:04;;;;;;;5.25;1.83;;;-5.20;99.90;;;;;;5036063;28;20046;-69
2021/12/26 00:55:30;;;;;;;6.13;2.03;;;-5.10;99.90;;;;;;5018628;28;20469;-68
2021/12/26 00:57:56;;;;;;;2.63;1.63;;;-5.10;99.90;;;;;;5034266;28;20035;-68
2021/12/26 01:00:26;;;;;;;3.72;1.67;;;-5.10;99.90;;;;;;4998968;28;20045;-69
2021/12/26 01:02:52;;;;;;;4.18;1.90;;;-5.10;99.90;;;;;;5016217;28;20113;-69
2021/12/26 01:05:20;;;;;;;3.55;1.80;;;-5.10;99.90;;;;;;5015420;28;20049;-69
2021/12/26 01:10:18;;;;;;;5.40;2.40;;;-5.10;99.90;;;;;;5035782;28;20060;-69
2021/12/26 01:12:44;;;;;;;4.70;1.70;;;-5.10;99.90;;;;;;5018164;28;20381;-68
2021/12/26 01:15:11;;;;;;;5.30;1.77;;;-5.00;99.90;;;;;;5017412;28;20119;-68
2021/12/26 01:17:41;;;;;;;4.35;1.80;;;-5.10;99.90;;;;;;5035389;28;20417;-69
2021/12/26 01:20:12;;;;;;;5.00;2.22;;;-5.00;99.90;;;;;;5016412;28;20038;-67
2021/12/26 01:22:38;;;;;;;5.03;1.80;;;-5.00;99.90;;;;;;5021820;28;20033;-67
2021/12/26 01:25:05;;;;;;;3.47;1.90;;;-5.00;99.90;;;;;;5035133;28;20080;-68
2021/12/26 01:27:31;;;;;;;4.07;1.80;;;-5.00;99.90;;;;;;5018080;28;20478;-68
2021/12/26 01:29:56;;;;;;;5.45;2.20;;;-5.10;99.90;;;;;;5017370;28;20038;-69
2021/12/26 01:32:22;;;;;;;3.88;1.98;;;-5.10;99.90;;;;;;5035447;28;20055;-68
2021/12/26 01:34:48;;;;;;;4.78;2.05;;;-5.00;99.90;;;;;;5017512;28;20037;-69
2021/12/26 01:37:14;;;;;;;4.07;1.88;;;-5.10;99.90;;;;;;5017830;28;20493;-68
2021/12/26 01:39:40;;;;;;;3.97;2.00;;;-5.10;99.90;;;;;;5019665;28;20117;-69
2021/12/26 01:42:08;;;;;;;6.53;2.45;;;-5.10;99.90;;;;;;4998102;28;20041;-68
2021/12/26 01:44:35;;;;;;;4.20;2.05;;;-5.10;99.90;;;;;;5015184;28;20359;-68
2021/12/26 01:47:01;;;;;;;4.80;1.90;;;-5.10;99.90;;;;;;5014824;28;20359;-69
2021/12/26 01:49:29;;;;;;;5.43;2.47;;;-5.10;99.90;;;;;;5028705;28;20047;-68
2021/12/26 01:51:58;;;;;;;3.63;1.77;;;-5.00;99.90;;;;;;5035296;28;20042;-68
2021/12/26 01:54:39;;;;;;;4.15;2.08;;;-5.00;99.90;;;;;;5016889;28;20057;-68
2021/12/26 01:57:09;;;;;;;3.88;1.80;;;-5.10;99.90;;;;;;5035134;28;20038;-68
2021/12/26 01:59:36;;;;;;;3.75;1.80;;;-5.00;99.90;;;;;;5020231;28;20308;-68
2021/12/26 02:02:02;;;;;;;5.60;2.05;;;-5.00;99.90;;;;;;5014949;28;20100;-69
2021/12/26 02:04:28;;;;;;;3.63;1.80;;;-4.90;99.90;;;;;;5014883;28;20497;-68
2021/12/26 02:06:59;;;;;;;4.63;2.13;;;-5.00;99.90;;;;;;4997607;28;20117;-70
2021/12/26 02:09:24;;;;;;;4.25;1.90;;;-5.00;99.90;;;;;;5010489;28;20361;-68
2021/12/26 02:11:50;;;;;;;3.35;1.90;;;-5.00;99.90;;;;;;5034687;28;20041;-69
2021/12/26 02:14:16;;;;;;;3.95;2.05;;;-5.10;99.90;;;;;;5033766;28;20041;-67
2021/12/26 02:16:42;;;;;;;4.25;1.98;;;-5.10;99.90;;;;;;5034563;28;20049;-68
2021/12/26 02:19:08;;;;;;;4.22;1.90;;;-5.00;99.90;;;;;;5005794;28;20498;-68
2021/12/26 02:24:16;;;;;;;2.80;1.80;;;-5.00;99.90;;;;;;5014822;28;20129;-68
2021/12/26 02:29:26;;;;;;;3.40;1.80;;;-5.00;99.90;;;;;;5033476;28;20488;-68
2021/12/26 02:31:52;;;;;;;3.00;1.60;;;-4.90;99.90;;;;;;5033963;28;20045;-69
2021/12/26 02:34:18;;;;;;;3.85;2.03;;;-5.00;99.90;;;;;;5033757;28;20033;-69
2021/12/26 02:36:44;;;;;;;4.05;1.88;;;-5.00;99.90;;;;;;5034061;28;20081;-68
2021/12/26 02:39:09;;;;;;;4.72;2.10;;;-5.00;99.90;;;;;;5005516;28;20041;-68
2021/12/26 02:41:35;;;;;;;4.00;1.92;;;-5.10;99.90;;;;;;4980871;28;20041;-69
2021/12/26 02:44:01;;;;;;;4.13;2.08;;;-5.10;99.90;;;;;;5014116;28;20080;-66
2021/12/26 02:46:27;;;;;;;4.47;2.10;;;-5.10;99.90;;;;;;5014431;28;20411;-66
2021/12/26 02:48:53;;;;;;;4.45;2.17;;;-5.00;99.90;;;;;;5022559;28;20040;-69
2021/12/26 02:51:19;;;;;;;4.70;2.03;;;-5.00;99.90;;;;;;5034096;28;20592;-67
2021/12/26 02:53:49;;;;;;;4.20;1.88;;;-4.90;99.90;;;;;;5033736;28;20025;-67
2021/12/26 02:56:15;;;;;;;3.45;1.92;;;-5.00;99.90;;;;;;5034163;28;20056;-67
2021/12/26 02:58:42;;;;;;;2.97;1.70;;;-4.90;99.90;;;;;;5026980;28;20038;-67
2021/12/26 03:01:15;;;;;;;4.13;1.92;;;-5.00;99.90;;;;;;5014198;28;20108;-68
2021/12/26 03:03:41;;;;;;;3.88;1.92;;;-5.10;99.90;;;;;;5014067;28;20046;-69
2021/12/26 03:06:17;;;;;;;5.05;2.15;;;-5.00;99.90;;;;;;4996521;28;20421;-67
2021/12/26 03:08:43;;;;;;;4.47;1.92;;;-5.00;99.90;;;;;;5021025;28;20433;-68
2021/12/26 03:11:09;;;;;;;3.65;1.98;;;-5.00;99.90;;;;;;5033826;28;20045;-68
2021/12/26 03:13:35;;;;;;;4.10;2.10;;;-5.00;99.90;;;;;;5033764;28;20361;-68
2021/12/26 03:16:01;;;;;;;4.78;2.03;;;-5.00;99.90;;;;;;5012505;28;20561;-69
2021/12/26 03:18:26;;;;;;;4.43;2.08;;;-5.00;99.90;;;;;;5007968;28;20034;-68
2021/12/26 03:20:52;;;;;;;4.40;2.20;;;-5.00;99.90;;;;;;4994354;28;20042;-68
2021/12/26 03:23:21;;;;;;;4.97;1.90;;;-4.90;99.90;;;;;;5005019;28;20693;-68
2021/12/26 03:25:47;;;;;;;2.55;1.63;;;-4.90;99.90;;;;;;5013927;28;20056;-68
2021/12/26 03:28:14;;;;;;;2.92;1.77;;;-5.00;99.90;;;;;;5011763;28;20468;-68
2021/12/26 03:30:41;;;;;;;3.45;1.95;;;-5.00;99.90;;;;;;5013759;28;20037;-68
2021/12/26 03:33:09;;;;;;;4.60;1.98;;;-5.00;99.90;;;;;;5012474;28;20038;-68
2021/12/26 03:35:36;;;;;;;2.75;1.58;;;-5.00;99.90;;;;;;5012452;28;20134;-67
2021/12/26 03:38:04;;;;;;;3.80;1.92;;;-5.00;99.90;;;;;;5012178;28;20381;-67
2021/12/26 03:40:30;;;;;;;2.83;1.70;;;-5.00;99.90;;;;;;4993945;28;20042;-68
2021/12/26 03:42:56;;;;;;;3.15;1.73;;;-4.90;99.90;;;;;;4993744;28;20466;-68
2021/12/26 03:45:22;;;;;;;7.03;2.00;;;-5.00;99.90;;;;;;4993895;28;20042;-68
2021/12/26 03:47:50;;;;;;;3.50;1.85;;;-4.90;99.90;;;;;;4993873;28;20042;-67
2021/12/26 03:50:19;;;;;;;4.05;1.95;;;-5.00;99.90;;;;;;4994350;28;20045;-67
2021/12/26 03:52:46;;;;;;;5.63;2.15;;;-5.00;99.90;;;;;;4993396;28;20463;-68
2021/12/26 03:55:11;;;;;;;4.63;2.13;;;-5.00;99.90;;;;;;4993422;28;20372;-68
2021/12/26 03:57:37;;;;;;;3.38;1.90;;;-5.00;99.90;;;;;;4992817;28;20042;-69
2021/12/26 04:00:06;;;;;;;5.03;2.00;;;-5.00;99.90;;;;;;5011060;28;20331;-67
2021/12/26 04:02:31;;;;;;;3.40;1.98;;;-5.00;99.90;;;;;;5013118;28;20040;-68
2021/12/26 04:04:57;;;;;;;3.80;1.95;;;-5.00;99.90;;;;;;5013294;28;20041;-67
2021/12/26 04:07:22;;;;;;;5.47;2.10;;;-5.10;99.90;;;;;;5013264;28;20430;-68
2021/12/26 04:09:48;;;;;;;4.85;2.00;;;-5.00;99.90;;;;;;4997991;28;20042;-67
2021/12/26 04:12:14;;;;;;;3.72;2.00;;;-5.10;99.90;;;;;;4993890;28;20054;-68
2021/12/26 04:14:39;;;;;;;3.80;2.00;;;-5.10;99.90;;;;;;4997564;28;20060;-68
2021/12/26 04:17:05;;;;;;;5.22;2.08;;;-5.10;99.90;;;;;;5015306;28;20483;-68
2021/12/26 04:19:31;;;;;;;3.22;1.90;;;-5.10;99.90;;;;;;5012512;28;20049;-68
2021/12/26 04:21:57;;;;;;;5.00;2.25;;;-5.10;99.90;;;;;;5036532;28;20048;-67
2021/12/26 04:24:22;;;;;;;3.60;2.00;;;-5.10;99.90;;;;;;5016587;28;20048;-68
2021/12/26 04:26:49;;;;;;;4.15;2.25;;;-5.10;99.90;;;;;;5017047;28;20279;-68
2021/12/26 04:29:14;;;;;;;4.85;2.05;;;-5.10;99.90;;;;;;5027327;28;20186;-68
2021/12/26 04:31:40;;;;;;;4.25;2.42;;;-5.10;99.90;;;;;;5019171;28;20128;-68
2021/12/26 04:34:06;;;;;;;3.85;1.90;;;-5.10;99.90;;;;;;5036059;28;20488;-67
2021/12/26 04:36:32;;;;;;;3.50;2.08;;;-5.20;99.90;;;;;;5036750;28;20061;-68
2021/12/26 04:38:58;;;;;;;4.47;2.13;;;-5.20;99.90;;;;;;5010411;28;20100;-68
2021/12/26 04:41:24;;;;;;;5.75;2.28;;;-5.20;99.90;;;;;;4983133;28;20037;-69
2021/12/26 04:43:50;;;;;;;6.35;2.30;;;-5.00;99.90;;;;;;5016228;28;20103;-68
2021/12/26 04:46:15;;;;;;;3.40;1.98;;;-5.20;99.90;;;;;;4982887;28;20069;-68
2021/12/26 04:48:43;;;;;;;7.07;2.22;;;-5.20;99.90;;;;;;5022586;28;20037;-67
2021/12/26 04:51:10;;;;;;;4.70;2.15;;;-5.20;99.90;;;;;;5036182;28;20037;-68
2021/12/26 04:53:38;;;;;;;5.53;2.35;;;-5.20;99.90;;;;;;5018280;28;20128;-67
2021/12/26 04:56:05;;;;;;;5.50;2.58;;;-5.20;99.90;;;;;;5018475;28;20053;-67
2021/12/26 04:58:31;;;;;;;3.90;2.25;;;-5.20;99.90;;;;;;5017279;28;20037;-68
2021/12/26 05:00:57;;;;;;;4.57;2.65;;;-5.20;99.90;;;;;;5013389;28;20096;-68
2021/12/26 05:03:23;;;;;;;6.25;2.85;;;-5.30;99.90;;;;;;5015257;28;20045;-68
2021/12/26 05:05:48;;;;;;;4.30;2.22;;;-5.30;99.90;;;;;;5015655;28;20050;-67
2021/12/26 05:08:15;;;;;;;4.55;2.58;;;-5.30;99.90;;;;;;5033506;28;20045;-67
2021/12/26 05:10:41;;;;;;;4.60;2.70;;;-5.30;99.90;;;;;;5035656;28;20120;-67
2021/12/26 05:13:08;;;;;;;5.30;2.47;;;-5.30;99.90;;;;;;5034936;28;20423;-67
2021/12/26 05:15:35;;;;;;;4.18;2.20;;;-5.30;99.90;;;;;;5034867;28;20045;-67
2021/12/26 05:18:00;;;;;;;4.97;2.30;;;-5.30;99.90;;;;;;5034618;28;20053;-67
2021/12/26 05:20:28;;;;;;;8.82;3.00;;;-5.30;99.90;;;;;;5035724;28;20053;-67
2021/12/26 05:22:55;;;;;;;5.35;2.50;;;-5.30;99.90;;;;;;5027165;28;20044;-67
2021/12/26 05:25:22;;;;;;;5.03;2.45;;;-5.10;99.90;;;;;;5015880;28;20351;-67
2021/12/26 05:27:48;;;;;;;5.53;2.55;;;-5.30;99.90;;;;;;5015248;28;20038;-67
2021/12/26 05:30:16;;;;;;;6.63;2.72;;;-5.10;99.90;;;;;;5016495;28;20042;-67
2021/12/26 05:32:44;;;;;;;5.53;2.35;;;-5.30;99.90;;;;;;5035183;28;20042;-68
2021/12/26 05:35:10;;;;;;;4.15;2.53;;;-5.30;99.90;;;;;;5035317;28;20199;-67
2021/12/26 05:37:37;;;;;;;5.90;2.40;;;-5.30;99.90;;;;;;5035544;28;20108;-66
2021/12/26 05:40:06;;;;;;;3.55;2.20;;;-5.30;99.90;;;;;;5018354;28;20061;-68
2021/12/26 05:42:32;;;;;;;5.40;2.72;;;-5.30;99.90;;;;;;5014905;28;20037;-67
2021/12/26 05:44:58;;;;;;;4.03;2.42;;;-5.20;99.90;;;;;;5015488;28;20056;-68
2021/12/26 05:47:24;;;;;;;4.50;2.60;;;-5.30;99.90;;;;;;5015468;28;20107;-68
2021/12/26 05:49:50;;;;;;;5.10;2.70;;;-5.30;99.90;;;;;;5012774;28;20064;-67
2021/12/26 05:52:18;;;;;;;5.35;2.55;;;-5.30;99.90;;;;;;5035171;28;20041;-67
2021/12/26 05:54:44;;;;;;;5.85;2.70;;;-5.30;99.90;;;;;;5034674;28;20060;-67
2021/12/26 05:57:10;;;;;;;4.80;2.50;;;-5.30;99.90;;;;;;5034951;28;20037;-67
2021/12/26 05:59:36;;;;;;;5.47;2.50;;;-5.20;99.90;;;;;;5021770;28;20112;-67
2021/12/26 06:02:02;;;;;;;5.43;2.80;;;-5.20;99.90;;;;;;5015011;28;20081;-67
2021/12/26 06:04:28;;;;;;;5.55;2.58;;;-5.20;99.90;;;;;;5014992;28;20065;-67
2021/12/26 06:06:54;;;;;;;4.55;2.85;;;-5.20;99.90;;;;;;4998115;28;20045;-68
2021/12/26 06:09:20;;;;;;;5.70;2.50;;;-5.20;99.90;;;;;;5008219;28;20045;-67
2021/12/26 06:11:46;;;;;;;6.00;2.75;;;-5.20;99.90;;;;;;5034952;28;20103;-67
2021/12/26 06:14:12;;;;;;;5.55;2.83;;;-5.10;99.90;;;;;;5033898;28;20029;-67
2021/12/26 06:16:37;;;;;;;5.95;2.83;;;-5.20;99.90;;;;;;5017447;28;20420;-68
2021/12/26 06:19:03;;;;;;;6.47;2.83;;;-5.20;99.90;;;;;;5025749;28;20046;-66
2021/12/26 06:21:29;;;;;;;4.97;2.72;;;-5.20;99.90;;;;;;5014944;28;20093;-67
2021/12/26 06:23:54;;;;;;;4.72;2.47;;;-5.20;99.90;;;;;;5030940;28;20362;-67
2021/12/26 06:26:22;;;;;;;5.95;2.70;;;-5.20;99.90;;;;;;5034262;28;20386;-67
2021/12/26 06:28:48;;;;;;;4.43;2.60;;;-5.20;99.90;;;;;;5015967;28;20041;-67
2021/12/26 06:31:15;;;;;;;5.80;2.75;;;-5.20;99.90;;;;;;5034338;28;20041;-66
2021/12/26 06:33:41;;;;;;;4.53;2.25;;;-5.20;99.90;;;;;;5034107;28;20045;-66
2021/12/26 06:36:08;;;;;;;10.65;2.80;;;-5.10;99.90;;;;;;5034281;28;20464;-67
2021/12/26 06:38:35;;;;;;;5.35;2.78;;;-5.20;99.90;;;;;;5030145;28;20044;-67
2021/12/26 06:41:02;;;;;;;5.57;2.60;;;-5.20;99.90;;;;;;5013711;28;20092;-66
2021/12/26 06:43:27;;;;;;;6.35;3.25;;;-5.20;99.90;;;;;;5014232;28;20056;-67
2021/12/26 06:45:54;;;;;;;5.55;2.50;;;-5.20;99.90;;;;;;5014631;28;20146;-67
2021/12/26 06:48:20;;;;;;;4.40;2.30;;;-5.20;99.90;;;;;;4998853;28;20469;-66
2021/12/26 06:50:46;;;;;;;5.68;2.60;;;-5.20;99.90;;;;;;5034293;28;20448;-67
2021/12/26 06:53:12;;;;;;;4.75;2.47;;;-5.10;99.90;;;;;;5015908;28;20056;-66
2021/12/26 06:55:38;;;;;;;4.60;2.72;;;-5.10;99.90;;;;;;5033947;28;20049;-68
2021/12/26 06:58:04;;;;;;;6.03;2.83;;;-5.10;99.90;;;;;;5033592;28;20091;-66
2021/12/26 07:00:30;;;;;;;5.18;2.83;;;-5.10;99.90;;;;;;5014329;28;20410;-66
2021/12/26 07:02:56;;;;;;;6.03;2.50;;;-5.00;99.90;;;;;;5013938;28;20038;-66
2021/12/26 07:05:22;;;;;;;5.10;2.70;;;-5.00;99.90;;;;;;5014194;28;20034;-67
2021/12/26 07:07:47;;;;;;;5.38;2.90;;;-5.10;99.90;;;;;;5014216;28;20042;-66
2021/12/26 07:10:13;;;;;;;5.75;3.00;;;-5.20;99.90;;;;;;5031334;28;20041;-66
2021/12/26 07:12:39;;;;;;;5.32;2.75;;;-5.20;99.90;;;;;;5015784;28;20056;-66
2021/12/26 07:15:06;;;;;;;5.65;2.58;;;-5.20;99.90;;;;;;5033262;28;20129;-67
2021/12/26 07:17:32;;;;;;;5.15;2.60;;;-5.20;99.90;;;;;;5033562;28;20041;-66
2021/12/26 07:19:57;;;;;;;6.07;2.83;;;-5.20;99.90;;;;;;5018368;28;20046;-67
2021/12/26 07:22:23;;;;;;;7.55;2.88;;;-5.20;99.90;;;;;;5017509;28;20033;-67
2021/12/26 07:24:49;;;;;;;5.50;2.75;;;-5.10;99.90;;;;;;5033513;28;20131;-67
2021/12/26 07:27:15;;;;;;;5.50;2.95;;;-5.20;99.90;;;;;;5015884;28;20056;-67
2021/12/26 07:29:40;;;;;;;5.25;3.10;;;-5.20;99.90;;;;;;5015270;28;20045;-67
2021/12/26 07:32:07;;;;;;;6.15;2.90;;;-5.30;99.90;;;;;;5033386;28;20347;-67
2021/12/26 07:34:33;;;;;;;5.57;2.88;;;-5.30;99.90;;;;;;5033098;28;20121;-66
2021/12/26 07:37:00;;;;;;;6.00;3.13;;;-5.20;99.90;;;;;;5016035;28;20180;-67
2021/12/26 07:39:26;;;;;;;5.10;3.05;;;-5.30;99.90;;;;;;5022415;28;20485;-67
2021/12/26 07:41:51;;;;;;;6.82;2.85;;;-5.30;99.90;;;;;;5013774;28;20073;-66
2021/12/26 07:44:17;;;;;;;6.10;3.10;;;-5.30;99.90;;;;;;5013367;28;20038;-67
2021/12/26 07:46:43;;;;;;;6.35;2.90;;;-5.30;99.90;;;;;;5013604;28;20131;-66
2021/12/26 07:49:08;;;;;;;5.25;2.97;;;-5.30;99.90;;;;;;5021728;28;20037;-66
2021/12/26 07:51:34;;;;;;;6.60;3.25;;;-5.30;99.90;;;;;;5034963;28;20037;-67
2021/12/26 07:54:01;;;;;;;5.22;3.00;;;-5.30;99.90;;;;;;5019423;28;20033;-66
2021/12/26 07:56:31;;;;;;;5.93;3.05;;;-5.20;99.90;;;;;;5037549;28;20048;-67
2021/12/26 07:58:56;;;;;;;5.97;3.20;;;-5.20;99.90;;;;;;5036902;28;20386;-67
2021/12/26 08:01:23;;;;;;;6.57;3.13;;;-5.30;99.90;;;;;;5025582;28;20044;-66
2021/12/26 08:03:48;;;;;;;7.53;3.13;;;-5.20;99.90;;;;;;5016972;28;20141;-67
2021/12/26 08:06:19;;;;;;;7.75;3.30;;;-5.20;99.90;;;;;;5027171;28;20113;-66
2021/12/26 08:08:45;;;;;;;8.88;3.22;;;-5.20;99.90;;;;;;5019128;28;20357;-67
2021/12/26 08:11:12;;;;;;;5.82;3.22;;;-5.20;99.90;;;;;;5036844;28;20048;-67
2021/12/26 08:13:38;;;;;;;7.10;3.60;;;-5.30;99.90;;;;;;5036641;28;20045;-68
2021/12/26 08:16:04;;;;;;;7.70;3.78;;;-5.30;99.90;;;;;;5030002;28;20374;-67
2021/12/26 08:18:29;;;;;;;5.03;3.10;;;-5.20;99.90;;;;;;5016888;28;20037;-67
2021/12/26 08:20:57;;;;;;;8.30;3.10;;;-5.20;99.90;;;;;;5032933;28;20048;-67
2021/12/26 08:23:27;;;;;;;6.85;3.17;;;-5.20;99.90;;;;;;5023993;28;20030;-69
2021/12/26 08:25:54;;;;;;;6.43;3.47;;;-5.10;99.90;;;;;;5016167;28;20445;-67
2021/12/26 08:28:21;;;;;;;7.53;3.47;;;-5.10;99.90;;;;;;5016156;28;20069;-68
2021/12/26 08:30:47;;;;;;;7.97;3.70;;;-5.10;99.90;;;;;;5018246;28;20065;-67
2021/12/26 08:33:15;;;;;;;6.38;3.13;;;-5.10;99.90;;;;;;5014265;28;20049;-67
2021/12/26 08:35:42;;;;;;;8.27;3.72;;;-5.00;99.90;;;;;;5015017;28;20121;-68
2021/12/26 08:38:09;;;;;;;5.53;3.17;;;-5.00;99.90;;;;;;4998928;28;20108;-68
2021/12/26 08:40:34;;;;;;;7.65;3.42;;;-4.90;99.90;;;;;;5035741;28;20033;-66
2021/12/26 08:43:00;;;;;;;7.60;3.50;;;-4.80;99.90;;;;;;5035944;28;20045;-67
2021/12/26 08:45:26;;;;;;;7.13;3.50;;;-4.80;99.90;;;;;;5038025;28;20042;-66
2021/12/26 08:47:55;;;;;;;7.03;3.33;;;-4.80;99.90;;;;;;5036057;28;20033;-67
2021/12/26 08:50:22;;;;;;;7.53;3.65;;;-4.70;99.90;;;;;;5034704;28;20056;-68
2021/12/26 08:52:49;;;;;;;6.30;3.47;;;-4.70;99.90;;;;;;5035367;28;20045;-66
2021/12/26 08:55:15;;;;;;;6.80;3.40;;;-4.70;99.90;;;;;;5035061;28;20565;-67
2021/12/26 08:57:41;;;;;;;6.10;3.65;;;-4.60;99.90;;;;;;5032931;28;20030;-67
2021/12/26 09:00:10;;;;;;;6.30;3.75;;;-4.60;99.90;;;;;;5019931;28;20038;-66
2021/12/26 09:02:36;;;;;;;6.68;3.70;;;-4.50;99.90;;;;;;5030855;28;20049;-66
2021/12/26 09:05:03;;;;;;;7.55;3.55;;;-4.50;99.90;;;;;;5016278;28;20045;-66
2021/12/26 09:07:29;;;;;;;8.38;4.10;;;-4.50;99.90;;;;;;5035387;28;20045;-66
2021/12/26 09:09:56;;;;;;;5.40;3.42;;;-4.50;99.90;;;;;;5031372;28;20139;-65
2021/12/26 09:12:21;;;;;;;8.70;3.67;;;-4.40;99.90;;;;;;5034113;28;20107;-65
2021/12/26 09:14:47;;;;;;;5.82;3.40;;;-4.40;99.90;;;;;;5034918;28;20053;-65
2021/12/26 09:17:13;;;;;;;7.15;3.85;;;-4.40;99.90;;;;;;5035070;28;20532;-65
2021/12/26 09:19:39;;;;;;;6.25;3.50;;;-4.40;99.90;;;;;;5034500;28;20117;-66
2021/12/26 09:22:07;;;;;;;6.43;3.75;;;-4.30;99.90;;;;;;5035046;28;20069;-66
2021/12/26 09:24:33;;;;;;;7.57;3.63;;;-4.30;99.90;;;;;;5015462;28;20085;-66
2021/12/26 09:27:00;;;;;;;7.47;3.72;;;-4.20;99.90;;;;;;5011248;28;20041;-65
2021/12/26 09:29:25;;;;;;;7.70;3.75;;;-4.10;99.90;;;;;;5034364;28;20053;-67
2021/12/26 09:31:53;;;;;;;7.63;4.10;;;-4.10;99.90;;;;;;5000828;28;20037;-66
2021/12/26 09:34:20;;;;;;;5.93;3.90;;;-4.00;99.90;;;;;;5034200;28;20454;-68
2021/12/26 09:36:46;;;;;;;7.35;3.20;;;-3.20;99.90;;;;;;5035324;28;20374;-66
2021/12/26 09:39:12;;;;;;;8.00;4.03;;;-3.90;99.90;;;;;;5034370;28;20037;-69
2021/12/26 09:41:38;;;;;;;7.93;3.97;;;-3.90;99.90;;;;;;5035270;28;20080;-68
2021/12/26 09:44:06;;;;;;;7.47;4.13;;;-3.80;99.90;;;;;;5034490;28;20046;-68
2021/12/26 09:46:33;;;;;;;8.23;4.28;;;-3.80;99.90;;;;;;5035004;28;20100;-68
2021/12/26 09:48:59;;;;;;;7.82;3.78;;;-3.80;99.90;;;;;;5034366;28;20112;-69
2021/12/26 09:51:26;;;;;;;7.55;3.67;;;-3.70;99.90;;;;;;5035467;28;20129;-68
2021/12/26 09:53:52;;;;;;;7.70;4.22;;;-3.70;99.90;;;;;;5034896;28;20045;-67
2021/12/26 09:56:18;;;;;;;6.72;3.70;;;-3.70;99.90;;;;;;5034964;28;20072;-68
2021/12/26 09:59:01;;;;;;;5.95;3.55;;;-3.60;99.90;;;;;;5030997;28;20100;-68
2021/12/26 10:01:32;;;;;;;7.00;3.92;;;-3.60;99.90;;;;;;5015545;28;20052;-68
2021/12/26 10:04:17;;;;;;;6.25;3.85;;;-3.50;99.90;;;;;;4997946;28;20049;-67
2021/12/26 10:06:44;;;;;;;7.82;3.83;;;-3.50;99.90;;;;;;5015487;28;20049;-68
2021/12/26 10:09:10;;;;;;;7.95;4.30;;;-3.40;99.90;;;;;;5022762;28;20429;-67
2021/12/26 10:11:45;;;;;;;7.28;3.78;;;-3.30;99.90;;;;;;5017895;28;20525;-67
2021/12/26 10:14:12;;;;;;;;;;;-3.20;99.90;;;;;;5035034;28;20053;-68
2021/12/26 10:16:44;;;;;;;7.35;4.20;;;-3.10;99.90;;;;;;5017486;28;19921;-69
2021/12/26 10:19:10;;;;;;;6.13;3.70;;;-2.80;99.90;;;;;;5027648;28;20081;-68
2021/12/26 10:21:44;;;;;;;6.68;3.90;;;-2.70;99.90;;;;;;5015186;28;20038;-68
2021/12/26 10:24:26;;;;;;;10.15;4.32;;;-2.70;99.90;;;;;;4997624;28;20037;-69
2021/12/26 10:27:00;;;;;;;6.43;3.60;;;-2.60;99.90;;;;;;5023699;28;20037;-68
2021/12/26 10:29:33;;;;;;;8.35;4.13;;;-2.50;99.90;;;;;;4992457;28;20164;-69
2021/12/26 10:32:18;;;;;;;8.25;4.00;;;-2.50;99.90;;;;;;5012545;28;20037;-70
2021/12/26 10:34:45;;;;;;;8.70;4.15;;;-2.40;99.90;;;;;;5013984;28;20069;-70
2021/12/26 10:37:32;;;;;;;5.47;3.63;;;-2.30;99.90;;;;;;5018776;28;20068;-68
2021/12/26 10:40:02;;;;;;;6.82;4.20;;;-2.50;99.90;;;;;;5036896;28;20390;-69
2021/12/26 10:42:34;;;;;;;6.05;3.80;;;-2.40;99.90;;;;;;5036242;28;20077;-68
2021/12/26 10:45:12;;;;;;;7.28;3.78;;;-2.40;99.90;;;;;;5016712;28;20037;-69
2021/12/26 10:47:49;;;;;;;6.65;4.10;;;-2.40;99.90;;;;;;5049653;28;20037;-69
2021/12/26 10:50:19;;;;;;;6.97;4.18;;;-2.30;99.90;;;;;;5013306;28;20117;-68
2021/12/26 10:52:51;;;;;;;6.75;4.38;;;-2.30;99.90;;;;;;5033373;28;20454;-69
2021/12/26 10:55:20;;;;;;;10.68;4.20;;;-2.30;99.90;;;;;;5033477;28;20096;-69
2021/12/26 10:57:48;;;;;;;6.95;4.00;;;-2.30;99.90;;;;;;5000009;28;20037;-68
2021/12/26 11:00:22;;;;;;;10.65;4.63;;;-2.20;99.90;;;;;;5032956;28;20125;-69
2021/12/26 11:03:03;;;;;;;7.47;4.40;;;-2.20;99.90;;;;;;5016424;28;20323;-70
2021/12/26 11:05:35;;;;;;;8.00;4.35;;;-2.20;99.90;;;;;;5016370;28;20041;-70
2021/12/26 11:08:06;;;;;;;6.97;4.07;;;-2.10;99.90;;;;;;5015458;28;20041;-69
2021/12/26 11:10:41;;;;;;;7.63;4.20;;;-2.20;99.90;;;;;;5010886;28;20486;-69
2021/12/26 11:13:15;;;;;;;;;;;-2.20;99.90;;;;;;5033627;28;20077;-68
2021/12/26 11:15:41;;;;;;;6.50;3.95;;;-2.10;99.90;;;;;;5033277;28;20008;-69
2021/12/26 11:18:12;;;;;;;6.88;4.07;;;-2.00;99.90;;;;;;5033331;28;20041;-68
2021/12/26 11:20:45;;;;;;;7.03;4.22;;;-2.00;99.90;;;;;;5032161;28;20042;-70
2021/12/26 11:23:14;;;;;;;8.05;4.50;;;-1.90;99.90;;;;;;5024843;28;20038;-70
2021/12/26 11:25:45;;;;;;;6.25;4.18;;;-1.90;99.90;;;;;;5030346;28;20052;-71
2021/12/26 11:28:16;;;;;;;7.80;4.78;;;-1.80;99.90;;;;;;5031187;28;20041;-68
2021/12/26 11:30:44;;;;;;;6.72;4.20;;;-1.80;99.90;;;;;;4985345;28;20033;-69
2021/12/26 11:33:12;;;;;;;6.90;4.35;;;-1.70;99.90;;;;;;5014637;28;20447;-70
2021/12/26 11:35:40;;;;;;;7.30;4.55;;;-1.70;99.90;;;;;;5033153;28;20121;-70
2021/12/26 11:38:09;;;;;;;6.93;4.65;;;-1.70;99.90;;;;;;5015439;28;20045;-70
2021/12/26 11:40:35;;;;;;;6.35;4.22;;;-1.70;99.90;;;;;;5028074;28;20031;-69
2021/12/26 11:43:39;;;;;;;8.88;4.50;;;-1.70;99.90;;;;;;5028711;28;20091;-67
2021/12/26 11:46:26;;;;;;;8.40;4.75;;;-1.70;99.90;;;;;;5004389;28;20493;-70
2021/12/26 11:49:13;;;;;;;9.13;5.13;;;-1.70;99.90;;;;;;5029018;28;20407;-70
2021/12/26 11:51:50;;;;;;;8.32;4.57;;;-1.70;99.90;;;;;;5013622;28;20046;-70
2021/12/26 11:54:51;;;;;;;9.18;5.10;;;-1.70;99.90;;;;;;4996400;28;20107;-69
2021/12/26 11:57:34;;;;;;;8.38;4.45;;;-1.70;99.90;;;;;;5013506;28;20034;-70
2021/12/26 12:00:12;;;;;;;7.93;4.45;;;-1.70;99.90;;;;;;5026799;28;20041;-70
2021/12/26 12:02:48;;;;;;;7.80;4.57;;;-1.60;99.90;;;;;;5032431;28;20034;-69
2021/12/26 12:05:26;;;;;;;8.13;4.90;;;-1.60;99.90;;;;;;5024240;28;20056;-71
2021/12/26 12:08:00;;;;;;;8.73;5.07;;;-1.60;99.90;;;;;;5013315;28;20068;-70
2021/12/26 12:10:33;;;;;;;8.98;4.97;;;-1.50;99.90;;;;;;5013719;28;20370;-70
2021/12/26 12:12:59;;;;;;;7.72;4.57;;;-1.60;99.90;;;;;;5012955;28;20056;-70
2021/12/26 12:15:48;;;;;;;7.70;4.60;;;-1.60;99.90;;;;;;5012805;28;20049;-70
2021/12/26 12:18:21;;;;;;;7.68;4.57;;;-1.60;99.90;;;;;;5013364;28;20033;-71
2021/12/26 12:20:48;;;;;;;7.88;4.55;;;-1.50;99.90;;;;;;5013765;28;20363;-68
2021/12/26 12:23:18;;;;;;;7.53;4.90;;;-1.40;99.90;;;;;;5023342;28;20052;-68
2021/12/26 12:25:49;;;;;;;8.50;4.90;;;-1.10;99.90;;;;;;5033011;28;20136;-69
2021/12/26 12:28:24;;;;;;;8.98;4.90;;;-0.90;99.90;;;;;;5033073;28;20060;-70
2021/12/26 12:31:09;;;;;;;9.43;5.20;;;-0.40;99.90;;;;;;5031990;28;20441;-70
2021/12/26 12:33:36;;;;;;;8.15;4.70;;;0.00;99.90;;;;;;5032475;28;20116;-70
2021/12/26 12:36:08;;;;;;;8.05;4.80;;;-0.10;99.90;;;;;;5032909;28;20346;-69
2021/12/26 12:38:46;;;;;;;9.05;5.10;;;0.00;99.90;;;;;;5006006;28;20058;-70
2021/12/26 12:41:35;;;;;;;7.68;4.85;;;0.10;99.90;;;;;;5036026;28;20087;-70
2021/12/26 12:44:03;;;;;;;9.45;4.97;;;0.10;99.90;;;;;;5035693;28;20528;-69
2021/12/26 12:46:29;;;;;;;9.93;5.20;;;0.30;99.90;;;;;;5036218;28;20093;-69
2021/12/26 12:49:05;;;;;;;10.02;5.60;;;0.30;99.90;;;;;;5017654;28;20033;-69
2021/12/26 12:51:37;;;;;;;11.20;5.90;;;0.50;99.90;;;;;;5036634;28;20052;-69
2021/12/26 12:54:30;;;;;;;11.02;6.55;;;0.60;99.90;;;;;;5034951;28;20056;-70
2021/12/26 12:56:58;;;;;;;9.55;5.18;;;0.60;99.90;;;;;;5016238;28;20048;-70
2021/12/26 12:59:23;;;;;;;9.02;5.28;;;0.40;99.90;;;;;;5016829;28;20037;-71
2021/12/26 13:02:02;;;;;;;9.20;5.25;;;0.40;99.90;;;;;;5015850;28;20044;-70